sensor_id;sensor_type;location;lat;lon;timestamp;temperature;humidity
10390;DHT22;5241;47.830;12.972;2024-03-02T00:00:19;6.60;99.90
10390;DHT22;5241;47.830;12.972;2024-03-02T00:02:48;6.60;99.90
10390;DHT22;5241;47.830;12.972;2024-03-02T00:05:21;6.60;99.90
10390;DHT22;5241;47.830;12.972;2024-03-02T00:07:57;6.70;99.90
10390;DHT22;5241;47.830;12.972;2024-03-02T00:10:35;6.70;99.90
10390;DHT22;5241;47.830;12.972;2024-03-02T00:13:02;6.60;99.90
10390;DHT22;5241;47.830;12.972;2024-03-02T00:15:47;6.60;99.90
10390;DHT22;5241;47.830;12.972;2024-03-02T00:18:14;6.60;99.90
10390;DHT22;5241;47.830;12.972;2024-03-02T00:20:41;6.60;99.90
10390;DHT22;5241;47.830;12.972;2024-03-02T00:23:08;6.60;99.90
10390;DHT22;5241;47.830;12.972;2024-03-02T00:25:44;6.60;99.90
10390;DHT22;5241;47.830;12.972;2024-03-02T00:33:35;6.60;99.90
10390;DHT22;5241;47.830;12.972;2024-03-02T00:36:04;6.60;99.90
10390;DHT22;5241;47.830;12.972;2024-03-02T00:38:31;6.60;99.90
10390;DHT22;5241;47.830;12.972;2024-03-02T00:40:59;6.60;99.90
10390;DHT22;5241;47.830;12.972;2024-03-02T00:45:50;6.50;99.90
10390;DHT22;5241;47.830;12.972;2024-03-02T00:48:16;6.50;99.90
10390;DHT22;5241;47.830;12.972;2024-03-02T00:50:42;6.50;99.90
10390;DHT22;5241;47.830;12.972;2024-03-02T00:53:11;6.50;99.90
10390;DHT22;5241;47.830;12.972;2024-03-02T00:55:37;6.50;99.90
10390;DHT22;5241;47.830;12.972;2024-03-02T00:58:03;6.50;99.90
10390;DHT22;5241;47.830;12.972;2024-03-02T01:00:29;6.50;99.90
10390;DHT22;5241;47.830;12.972;2024-03-02T01:02:54;6.50;99.90
10390;DHT22;5241;47.830;12.972;2024-03-02T01:05:20;6.50;99.90
10390;DHT22;5241;47.830;12.972;2024-03-02T01:07:45;6.60;99.90
10390;DHT22;5241;47.830;12.972;2024-03-02T01:10:11;6.60;99.90
10390;DHT22;5241;47.830;12.972;2024-03-02T01:12:37;6.50;99.90
10390;DHT22;5241;47.830;12.972;2024-03-02T01:15:02;6.50;99.90
10390;DHT22;5241;47.830;12.972;2024-03-02T01:17:31;6.50;99.90
10390;DHT22;5241;47.830;12.972;2024-03-02T01:19:56;6.50;99.90
10390;DHT22;5241;47.830;12.972;2024-03-02T01:22:23;6.50;99.90
10390;DHT22;5241;47.830;12.972;2024-03-02T01:24:51;6.50;99.90
10390;DHT22;5241;47.830;12.972;2024-03-02T01:27:16;6.50;99.90
10390;DHT22;5241;47.830;12.972;2024-03-02T01:29:42;6.50;99.90
10390;DHT22;5241;47.830;12.972;2024-03-02T01:32:07;6.50;99.90
10390;DHT22;5241;47.830;12.972;2024-03-02T01:34:33;6.50;99.90
10390;DHT22;5241;47.830;12.972;2024-03-02T01:36:58;6.50;99.90
10390;DHT22;5241;47.830;12.972;2024-03-02T01:39:24;6.50;99.90
10390;DHT22;5241;47.830;12.972;2024-03-02T01:41:49;6.50;99.90
10390;DHT22;5241;47.830;12.972;2024-03-02T01:44:15;6.40;99.90
10390;DHT22;5241;47.830;12.972;2024-03-02T01:46:41;6.40;99.90
10390;DHT22;5241;47.830;12.972;2024-03-02T01:49:06;6.40;99.90
10390;DHT22;5241;47.830;12.972;2024-03-02T01:51:32;6.40;99.90
10390;DHT22;5241;47.830;12.972;2024-03-02T01:53:57;6.40;99.90
10390;DHT22;5241;47.830;12.972;2024-03-02T01:56:23;6.40;99.90
10390;DHT22;5241;47.830;12.972;2024-03-02T01:58:49;6.40;99.90
10390;DHT22;5241;47.830;12.972;2024-03-02T02:01:15;6.40;99.90
10390;DHT22;5241;47.830;12.972;2024-03-02T02:03:43;6.40;99.90
10390;DHT22;5241;47.830;12.972;2024-03-02T02:06:09;6.50;99.90
10390;DHT22;5241;47.830;12.972;2024-03-02T02:08:36;6.40;99.90
10390;DHT22;5241;47.830;12.972;2024-03-02T02:11:02;6.50;99.90
10390;DHT22;5241;47.830;12.972;2024-03-02T02:13:28;6.50;99.90
10390;DHT22;5241;47.830;12.972;2024-03-02T02:15:53;6.50;99.90
10390;DHT22;5241;47.830;12.972;2024-03-02T02:18:19;6.40;99.90
10390;DHT22;5241;47.830;12.972;2024-03-02T02:20:44;6.40;99.90
10390;DHT22;5241;47.830;12.972;2024-03-02T02:23:10;6.40;99.90
10390;DHT22;5241;47.830;12.972;2024-03-02T02:25:35;6.40;99.90
10390;DHT22;5241;47.830;12.972;2024-03-02T02:28:01;6.30;99.90
10390;DHT22;5241;47.830;12.972;2024-03-02T02:30:31;6.30;99.90
10390;DHT22;5241;47.830;12.972;2024-03-02T02:32:57;6.30;99.90
10390;DHT22;5241;47.830;12.972;2024-03-02T02:35:23;6.20;99.90
10390;DHT22;5241;47.830;12.972;2024-03-02T02:37:54;6.10;99.90
10390;DHT22;5241;47.830;12.972;2024-03-02T02:40:19;6.10;99.90
10390;DHT22;5241;47.830;12.972;2024-03-02T02:42:45;6.00;99.90
10390;DHT22;5241;47.830;12.972;2024-03-02T02:45:10;5.90;99.90
10390;DHT22;5241;47.830;12.972;2024-03-02T02:47:38;5.80;99.90
10390;DHT22;5241;47.830;12.972;2024-03-02T02:50:04;5.80;99.90
10390;DHT22;5241;47.830;12.972;2024-03-02T02:52:34;5.70;99.90
10390;DHT22;5241;47.830;12.972;2024-03-02T02:55:06;5.60;99.90
10390;DHT22;5241;47.830;12.972;2024-03-02T02:57:32;5.50;99.90
10390;DHT22;5241;47.830;12.972;2024-03-02T03:00:06;5.50;99.90
10390;DHT22;5241;47.830;12.972;2024-03-02T03:02:36;5.40;99.90
10390;DHT22;5241;47.830;12.972;2024-03-02T03:05:03;5.40;99.90
10390;DHT22;5241;47.830;12.972;2024-03-02T03:07:28;5.40;99.90
10390;DHT22;5241;47.830;12.972;2024-03-02T03:09:54;5.40;99.90
10390;DHT22;5241;47.830;12.972;2024-03-02T03:12:19;5.40;99.90
10390;DHT22;5241;47.830;12.972;2024-03-02T03:14:45;5.40;99.90
10390;DHT22;5241;47.830;12.972;2024-03-02T03:17:10;5.50;99.90
10390;DHT22;5241;47.830;12.972;2024-03-02T03:19:38;5.50;99.90
10390;DHT22;5241;47.830;12.972;2024-03-02T03:22:04;5.60;99.90
10390;DHT22;5241;47.830;12.972;2024-03-02T03:24:29;5.60;99.90
10390;DHT22;5241;47.830;12.972;2024-03-02T03:26:55;5.50;99.90
10390;DHT22;5241;47.830;12.972;2024-03-02T03:29:20;5.60;99.90
10390;DHT22;5241;47.830;12.972;2024-03-02T03:31:46;5.60;99.90
10390;DHT22;5241;47.830;12.972;2024-03-02T03:34:11;5.50;99.90
10390;DHT22;5241;47.830;12.972;2024-03-02T03:36:41;5.50;99.90
10390;DHT22;5241;47.830;12.972;2024-03-02T03:39:06;5.50;99.90
10390;DHT22;5241;47.830;12.972;2024-03-02T03:41:32;5.50;99.90
10390;DHT22;5241;47.830;12.972;2024-03-02T03:43:58;5.40;99.90
10390;DHT22;5241;47.830;12.972;2024-03-02T03:46:23;5.40;99.90
10390;DHT22;5241;47.830;12.972;2024-03-02T03:48:49;5.30;99.90
10390;DHT22;5241;47.830;12.972;2024-03-02T03:51:14;5.40;99.90
10390;DHT22;5241;47.830;12.972;2024-03-02T03:53:40;5.30;99.90
10390;DHT22;5241;47.830;12.972;2024-03-02T03:56:05;5.20;99.90
10390;DHT22;5241;47.830;12.972;2024-03-02T03:58:31;5.20;99.90
10390;DHT22;5241;47.830;12.972;2024-03-02T04:00:57;5.10;99.90
10390;DHT22;5241;47.830;12.972;2024-03-02T04:03:22;5.00;99.90
10390;DHT22;5241;47.830;12.972;2024-03-02T04:05:48;4.90;99.90
10390;DHT22;5241;47.830;12.972;2024-03-02T04:08:13;4.90;99.90
10390;DHT22;5241;47.830;12.972;2024-03-02T04:10:39;4.80;99.90
10390;DHT22;5241;47.830;12.972;2024-03-02T04:13:05;4.70;99.90
10390;DHT22;5241;47.830;12.972;2024-03-02T04:15:31;4.60;99.90
10390;DHT22;5241;47.830;12.972;2024-03-02T04:17:56;4.50;99.90
10390;DHT22;5241;47.830;12.972;2024-03-02T04:20:22;4.40;99.90
10390;DHT22;5241;47.830;12.972;2024-03-02T04:22:47;4.30;99.90
10390;DHT22;5241;47.830;12.972;2024-03-02T04:25:13;4.30;99.90
10390;DHT22;5241;47.830;12.972;2024-03-02T04:27:38;4.20;99.90
10390;DHT22;5241;47.830;12.972;2024-03-02T04:30:05;4.20;99.90
10390;DHT22;5241;47.830;12.972;2024-03-02T04:32:31;4.10;99.90
10390;DHT22;5241;47.830;12.972;2024-03-02T04:34:57;4.00;99.90
10390;DHT22;5241;47.830;12.972;2024-03-02T04:37:22;3.90;99.90
10390;DHT22;5241;47.830;12.972;2024-03-02T04:39:48;3.80;99.90
10390;DHT22;5241;47.830;12.972;2024-03-02T04:42:14;3.80;99.90
10390;DHT22;5241;47.830;12.972;2024-03-02T04:44:39;3.70;99.90
10390;DHT22;5241;47.830;12.972;2024-03-02T04:47:05;3.70;99.90
10390;DHT22;5241;47.830;12.972;2024-03-02T04:49:30;3.70;99.90
10390;DHT22;5241;47.830;12.972;2024-03-02T04:51:56;3.60;99.90
10390;DHT22;5241;47.830;12.972;2024-03-02T04:54:22;3.60;99.90
10390;DHT22;5241;47.830;12.972;2024-03-02T04:56:48;3.40;99.90
10390;DHT22;5241;47.830;12.972;2024-03-02T04:59:17;3.30;99.90
10390;DHT22;5241;47.830;12.972;2024-03-02T05:01:46;3.40;99.90
10390;DHT22;5241;47.830;12.972;2024-03-02T05:04:12;3.40;99.90
10390;DHT22;5241;47.830;12.972;2024-03-02T05:06:39;3.40;99.90
10390;DHT22;5241;47.830;12.972;2024-03-02T05:09:08;3.70;99.90
10390;DHT22;5241;47.830;12.972;2024-03-02T05:11:34;3.70;99.90
10390;DHT22;5241;47.830;12.972;2024-03-02T05:14:03;3.70;99.90
10390;DHT22;5241;47.830;12.972;2024-03-02T05:16:28;3.70;99.90
10390;DHT22;5241;47.830;12.972;2024-03-02T05:18:54;3.70;99.90
10390;DHT22;5241;47.830;12.972;2024-03-02T05:21:20;3.70;99.90
10390;DHT22;5241;47.830;12.972;2024-03-02T05:23:45;3.70;99.90
10390;DHT22;5241;47.830;12.972;2024-03-02T05:26:11;3.80;99.90
10390;DHT22;5241;47.830;12.972;2024-03-02T05:28:38;3.80;99.90
10390;DHT22;5241;47.830;12.972;2024-03-02T05:31:04;3.80;99.90
10390;DHT22;5241;47.830;12.972;2024-03-02T05:33:30;3.80;99.90
10390;DHT22;5241;47.830;12.972;2024-03-02T05:35:57;3.80;99.90
10390;DHT22;5241;47.830;12.972;2024-03-02T05:38:22;3.80;99.90
10390;DHT22;5241;47.830;12.972;2024-03-02T05:40:48;3.80;99.90
10390;DHT22;5241;47.830;12.972;2024-03-02T05:43:14;3.90;99.90
10390;DHT22;5241;47.830;12.972;2024-03-02T05:45:39;3.90;99.90
10390;DHT22;5241;47.830;12.972;2024-03-02T05:48:07;3.90;99.90
10390;DHT22;5241;47.830;12.972;2024-03-02T05:50:33;4.00;99.90
10390;DHT22;5241;47.830;12.972;2024-03-02T05:52:58;4.00;99.90
10390;DHT22;5241;47.830;12.972;2024-03-02T05:55:24;4.10;99.90
10390;DHT22;5241;47.830;12.972;2024-03-02T05:57:50;4.10;99.90
10390;DHT22;5241;47.830;12.972;2024-03-02T06:00:35;4.20;99.90
10390;DHT22;5241;47.830;12.972;2024-03-02T06:03:01;4.20;99.90
10390;DHT22;5241;47.830;12.972;2024-03-02T06:05:26;4.20;99.90
10390;DHT22;5241;47.830;12.972;2024-03-02T06:07:52;4.20;99.90
10390;DHT22;5241;47.830;12.972;2024-03-02T06:10:18;4.20;99.90
10390;DHT22;5241;47.830;12.972;2024-03-02T06:12:43;4.20;99.90
10390;DHT22;5241;47.830;12.972;2024-03-02T06:15:09;4.20;99.90
10390;DHT22;5241;47.830;12.972;2024-03-02T06:17:36;4.20;99.90
10390;DHT22;5241;47.830;12.972;2024-03-02T06:20:02;4.20;99.90
10390;DHT22;5241;47.830;12.972;2024-03-02T06:22:28;4.20;99.90
10390;DHT22;5241;47.830;12.972;2024-03-02T06:24:53;4.20;99.90
10390;DHT22;5241;47.830;12.972;2024-03-02T06:27:19;4.10;99.90
10390;DHT22;5241;47.830;12.972;2024-03-02T06:29:44;4.10;99.90
10390;DHT22;5241;47.830;12.972;2024-03-02T06:32:10;4.20;99.90
10390;DHT22;5241;47.830;12.972;2024-03-02T06:34:35;4.20;99.90
10390;DHT22;5241;47.830;12.972;2024-03-02T06:37:00;4.30;99.90
10390;DHT22;5241;47.830;12.972;2024-03-02T06:39:26;4.30;99.90
10390;DHT22;5241;47.830;12.972;2024-03-02T06:41:52;4.40;99.90
10390;DHT22;5241;47.830;12.972;2024-03-02T06:44:17;4.50;99.90
10390;DHT22;5241;47.830;12.972;2024-03-02T06:46:43;4.50;99.90
10390;DHT22;5241;47.830;12.972;2024-03-02T06:49:09;4.40;99.90
10390;DHT22;5241;47.830;12.972;2024-03-02T06:51:36;4.50;99.90
10390;DHT22;5241;47.830;12.972;2024-03-02T06:54:02;4.60;99.90
10390;DHT22;5241;47.830;12.972;2024-03-02T06:56:27;4.90;99.90
10390;DHT22;5241;47.830;12.972;2024-03-02T06:58:53;4.80;99.90
10390;DHT22;5241;47.830;12.972;2024-03-02T07:01:18;4.90;99.90
10390;DHT22;5241;47.830;12.972;2024-03-02T07:03:45;5.00;99.90
10390;DHT22;5241;47.830;12.972;2024-03-02T07:06:11;5.10;99.90
10390;DHT22;5241;47.830;12.972;2024-03-02T07:08:36;5.20;99.90
10390;DHT22;5241;47.830;12.972;2024-03-02T07:11:02;5.10;99.90
10390;DHT22;5241;47.830;12.972;2024-03-02T07:13:27;5.10;99.90
10390;DHT22;5241;47.830;12.972;2024-03-02T07:15:53;5.30;99.90
10390;DHT22;5241;47.830;12.972;2024-03-02T07:18:27;5.30;99.90
10390;DHT22;5241;47.830;12.972;2024-03-02T07:20:53;5.40;99.90
10390;DHT22;5241;47.830;12.972;2024-03-02T07:23:18;5.60;99.90
10390;DHT22;5241;47.830;12.972;2024-03-02T07:25:45;5.90;99.90
10390;DHT22;5241;47.830;12.972;2024-03-02T07:28:11;5.90;99.90
10390;DHT22;5241;47.830;12.972;2024-03-02T07:30:37;5.80;99.90
10390;DHT22;5241;47.830;12.972;2024-03-02T07:33:04;5.70;99.90
10390;DHT22;5241;47.830;12.972;2024-03-02T07:35:30;5.80;99.90
10390;DHT22;5241;47.830;12.972;2024-03-02T07:37:57;5.70;99.90
10390;DHT22;5241;47.830;12.972;2024-03-02T07:40:23;5.50;99.90
10390;DHT22;5241;47.830;12.972;2024-03-02T07:42:48;5.40;99.90
10390;DHT22;5241;47.830;12.972;2024-03-02T07:45:14;5.50;99.90
10390;DHT22;5241;47.830;12.972;2024-03-02T07:47:40;5.90;99.90
10390;DHT22;5241;47.830;12.972;2024-03-02T07:50:06;6.00;99.90
10390;DHT22;5241;47.830;12.972;2024-03-02T07:52:32;5.90;99.90
10390;DHT22;5241;47.830;12.972;2024-03-02T07:54:58;6.00;99.90
10390;DHT22;5241;47.830;12.972;2024-03-02T07:57:24;5.90;99.90
10390;DHT22;5241;47.830;12.972;2024-03-02T07:59:50;6.00;99.90
10390;DHT22;5241;47.830;12.972;2024-03-02T08:02:16;6.30;99.90
10390;DHT22;5241;47.830;12.972;2024-03-02T08:04:41;6.30;99.90
10390;DHT22;5241;47.830;12.972;2024-03-02T08:07:07;6.30;99.90
10390;DHT22;5241;47.830;12.972;2024-03-02T08:09:34;6.50;99.90
10390;DHT22;5241;47.830;12.972;2024-03-02T08:12:00;6.60;99.90
10390;DHT22;5241;47.830;12.972;2024-03-02T08:14:26;6.50;99.90
10390;DHT22;5241;47.830;12.972;2024-03-02T08:16:51;6.60;99.90
10390;DHT22;5241;47.830;12.972;2024-03-02T08:19:17;6.70;99.90
10390;DHT22;5241;47.830;12.972;2024-03-02T08:21:43;7.00;99.90
10390;DHT22;5241;47.830;12.972;2024-03-02T08:24:09;7.50;99.90
10390;DHT22;5241;47.830;12.972;2024-03-02T08:26:34;7.60;99.90
10390;DHT22;5241;47.830;12.972;2024-03-02T08:29:00;7.90;99.90
10390;DHT22;5241;47.830;12.972;2024-03-02T08:31:29;8.10;99.90
10390;DHT22;5241;47.830;12.972;2024-03-02T08:33:55;8.00;99.90
10390;DHT22;5241;47.830;12.972;2024-03-02T08:36:23;7.90;99.90
10390;DHT22;5241;47.830;12.972;2024-03-02T08:38:49;8.40;99.90
10390;DHT22;5241;47.830;12.972;2024-03-02T08:41:15;8.30;99.90
10390;DHT22;5241;47.830;12.972;2024-03-02T08:43:42;8.30;99.90
10390;DHT22;5241;47.830;12.972;2024-03-02T08:46:08;8.40;99.90
10390;DHT22;5241;47.830;12.972;2024-03-02T08:48:34;8.40;99.90
10390;DHT22;5241;47.830;12.972;2024-03-02T08:50:59;9.00;99.90
10390;DHT22;5241;47.830;12.972;2024-03-02T08:53:25;9.30;99.90
10390;DHT22;5241;47.830;12.972;2024-03-02T08:55:51;9.40;99.90
10390;DHT22;5241;47.830;12.972;2024-03-02T08:58:17;9.40;99.90
10390;DHT22;5241;47.830;12.972;2024-03-02T09:00:42;9.20;99.90
10390;DHT22;5241;47.830;12.972;2024-03-02T09:03:08;9.30;99.90
10390;DHT22;5241;47.830;12.972;2024-03-02T09:05:33;9.90;99.90
10390;DHT22;5241;47.830;12.972;2024-03-02T09:07:59;10.00;99.90
10390;DHT22;5241;47.830;12.972;2024-03-02T09:10:24;10.50;99.90
10390;DHT22;5241;47.830;12.972;2024-03-02T09:12:50;10.80;99.90
10390;DHT22;5241;47.830;12.972;2024-03-02T09:15:15;11.00;99.90
10390;DHT22;5241;47.830;12.972;2024-03-02T09:17:41;11.20;99.90
10390;DHT22;5241;47.830;12.972;2024-03-02T09:20:07;11.10;99.90
10390;DHT22;5241;47.830;12.972;2024-03-02T09:22:32;10.90;99.90
10390;DHT22;5241;47.830;12.972;2024-03-02T09:24:58;11.30;99.90
10390;DHT22;5241;47.830;12.972;2024-03-02T09:27:24;11.80;99.90
10390;DHT22;5241;47.830;12.972;2024-03-02T09:29:49;11.70;99.90
10390;DHT22;5241;47.830;12.972;2024-03-02T09:32:15;11.80;99.90
10390;DHT22;5241;47.830;12.972;2024-03-02T09:34:41;12.10;99.90
10390;DHT22;5241;47.830;12.972;2024-03-02T09:37:07;12.20;99.90
10390;DHT22;5241;47.830;12.972;2024-03-02T09:39:33;12.30;99.90
10390;DHT22;5241;47.830;12.972;2024-03-02T09:41:59;12.50;99.90
10390;DHT22;5241;47.830;12.972;2024-03-02T09:44:25;12.80;99.90
10390;DHT22;5241;47.830;12.972;2024-03-02T09:46:51;12.90;99.90
10390;DHT22;5241;47.830;12.972;2024-03-02T09:49:17;12.60;99.90
10390;DHT22;5241;47.830;12.972;2024-03-02T09:51:48;12.30;99.90
10390;DHT22;5241;47.830;12.972;2024-03-02T09:54:15;12.60;99.90
10390;DHT22;5241;47.830;12.972;2024-03-02T09:56:41;12.40;99.90
10390;DHT22;5241;47.830;12.972;2024-03-02T09:59:06;12.70;99.90
10390;DHT22;5241;47.830;12.972;2024-03-02T10:01:32;12.90;99.90
10390;DHT22;5241;47.830;12.972;2024-03-02T10:04:01;13.30;99.90
10390;DHT22;5241;47.830;12.972;2024-03-02T10:06:28;13.50;99.90
10390;DHT22;5241;47.830;12.972;2024-03-02T10:08:55;13.70;99.90
10390;DHT22;5241;47.830;12.972;2024-03-02T10:11:32;13.30;99.90
10390;DHT22;5241;47.830;12.972;2024-03-02T10:14:09;12.90;99.90
10390;DHT22;5241;47.830;12.972;2024-03-02T10:16:40;13.00;99.90
10390;DHT22;5241;47.830;12.972;2024-03-02T10:19:22;12.80;99.90
10390;DHT22;5241;47.830;12.972;2024-03-02T10:21:55;13.10;99.90
10390;DHT22;5241;47.830;12.972;2024-03-02T10:24:22;13.70;99.90
10390;DHT22;5241;47.830;12.972;2024-03-02T10:26:48;14.00;99.90
10390;DHT22;5241;47.830;12.972;2024-03-02T10:29:14;14.10;99.90
10390;DHT22;5241;47.830;12.972;2024-03-02T10:31:44;14.10;99.90
10390;DHT22;5241;47.830;12.972;2024-03-02T10:34:11;14.60;99.90
10390;DHT22;5241;47.830;12.972;2024-03-02T10:36:40;14.80;99.90
10390;DHT22;5241;47.830;12.972;2024-03-02T10:39:07;15.10;99.90
10390;DHT22;5241;47.830;12.972;2024-03-02T10:41:36;15.10;99.90
10390;DHT22;5241;47.830;12.972;2024-03-02T10:44:04;15.20;99.90
10390;DHT22;5241;47.830;12.972;2024-03-02T10:46:31;15.10;99.90
10390;DHT22;5241;47.830;12.972;2024-03-02T10:48:58;15.60;99.90
10390;DHT22;5241;47.830;12.972;2024-03-02T10:51:28;15.80;99.90
10390;DHT22;5241;47.830;12.972;2024-03-02T10:53:57;15.80;99.90
10390;DHT22;5241;47.830;12.972;2024-03-02T10:56:34;15.10;99.90
10390;DHT22;5241;47.830;12.972;2024-03-02T11:01:39;14.80;99.90
10390;DHT22;5241;47.830;12.972;2024-03-02T11:04:08;15.80;99.90
10390;DHT22;5241;47.830;12.972;2024-03-02T11:06:35;15.50;99.90
10390;DHT22;5241;47.830;12.972;2024-03-02T11:09:06;15.00;99.90
10390;DHT22;5241;47.830;12.972;2024-03-02T11:11:36;15.30;99.90
10390;DHT22;5241;47.830;12.972;2024-03-02T11:14:04;15.70;99.90
10390;DHT22;5241;47.830;12.972;2024-03-02T11:16:37;15.50;99.90
10390;DHT22;5241;47.830;12.972;2024-03-02T11:19:06;16.40;97.70
10390;DHT22;5241;47.830;12.972;2024-03-02T11:21:34;16.90;96.90
10390;DHT22;5241;47.830;12.972;2024-03-02T11:24:00;16.70;96.00
10390;DHT22;5241;47.830;12.972;2024-03-02T11:26:27;16.40;98.60
10390;DHT22;5241;47.830;12.972;2024-03-02T11:28:54;16.50;97.10
10390;DHT22;5241;47.830;12.972;2024-03-02T11:31:21;16.60;98.10
10390;DHT22;5241;47.830;12.972;2024-03-02T11:33:46;17.10;96.00
10390;DHT22;5241;47.830;12.972;2024-03-02T11:36:12;17.50;95.20
10390;DHT22;5241;47.830;12.972;2024-03-02T11:38:37;17.30;95.10
10390;DHT22;5241;47.830;12.972;2024-03-02T11:41:06;16.80;96.30
10390;DHT22;5241;47.830;12.972;2024-03-02T11:43:37;17.00;95.50
10390;DHT22;5241;47.830;12.972;2024-03-02T11:46:05;17.60;95.90
10390;DHT22;5241;47.830;12.972;2024-03-02T11:48:33;18.20;92.20
10390;DHT22;5241;47.830;12.972;2024-03-02T11:51:00;18.20;93.30
10390;DHT22;5241;47.830;12.972;2024-03-02T11:53:27;17.90;93.60
10390;DHT22;5241;47.830;12.972;2024-03-02T11:55:55;17.70;93.80
10390;DHT22;5241;47.830;12.972;2024-03-02T11:58:21;17.70;92.80
10390;DHT22;5241;47.830;12.972;2024-03-02T12:00:56;18.40;93.00
10390;DHT22;5241;47.830;12.972;2024-03-02T12:03:23;18.30;94.00
10390;DHT22;5241;47.830;12.972;2024-03-02T12:05:51;17.60;94.10
10390;DHT22;5241;47.830;12.972;2024-03-02T12:08:18;17.30;95.80
10390;DHT22;5241;47.830;12.972;2024-03-02T12:11:01;17.30;95.80
10390;DHT22;5241;47.830;12.972;2024-03-02T12:13:27;18.10;94.30
10390;DHT22;5241;47.830;12.972;2024-03-02T12:15:54;17.70;94.40
10390;DHT22;5241;47.830;12.972;2024-03-02T12:18:23;17.80;94.70
10390;DHT22;5241;47.830;12.972;2024-03-02T12:20:50;18.20;94.50
10390;DHT22;5241;47.830;12.972;2024-03-02T12:23:22;18.10;94.70
10390;DHT22;5241;47.830;12.972;2024-03-02T12:25:48;18.30;94.10
10390;DHT22;5241;47.830;12.972;2024-03-02T12:28:14;18.10;93.80
10390;DHT22;5241;47.830;12.972;2024-03-02T12:30:39;17.70;95.20
10390;DHT22;5241;47.830;12.972;2024-03-02T12:33:05;17.50;94.80
10390;DHT22;5241;47.830;12.972;2024-03-02T12:35:31;17.90;94.30
10390;DHT22;5241;47.830;12.972;2024-03-02T12:37:57;17.80;94.30
10390;DHT22;5241;47.830;12.972;2024-03-02T12:40:23;18.60;93.20
10390;DHT22;5241;47.830;12.972;2024-03-02T12:42:49;19.80;92.20
10390;DHT22;5241;47.830;12.972;2024-03-02T12:45:16;19.60;91.70
10390;DHT22;5241;47.830;12.972;2024-03-02T12:47:42;19.80;91.80
10390;DHT22;5241;47.830;12.972;2024-03-02T12:50:08;19.60;91.90
10390;DHT22;5241;47.830;12.972;2024-03-02T12:52:34;19.70;91.60
10390;DHT22;5241;47.830;12.972;2024-03-02T12:55:01;18.50;92.50
10390;DHT22;5241;47.830;12.972;2024-03-02T12:57:29;18.40;93.50
10390;DHT22;5241;47.830;12.972;2024-03-02T13:00:05;18.50;92.80
10390;DHT22;5241;47.830;12.972;2024-03-02T13:02:35;19.40;92.60
10390;DHT22;5241;47.830;12.972;2024-03-02T13:05:01;19.00;92.30
10390;DHT22;5241;47.830;12.972;2024-03-02T13:07:27;18.90;92.60
10390;DHT22;5241;47.830;12.972;2024-03-02T13:09:54;19.40;92.10
10390;DHT22;5241;47.830;12.972;2024-03-02T13:12:21;20.10;91.10
10390;DHT22;5241;47.830;12.972;2024-03-02T13:14:53;19.40;91.10
10390;DHT22;5241;47.830;12.972;2024-03-02T13:17:19;20.00;90.00
10390;DHT22;5241;47.830;12.972;2024-03-02T13:20:12;19.90;90.50
10390;DHT22;5241;47.830;12.972;2024-03-02T13:22:39;20.60;87.70
10390;DHT22;5241;47.830;12.972;2024-03-02T13:25:05;20.40;84.50
10390;DHT22;5241;47.830;12.972;2024-03-02T13:27:31;20.60;84.90
10390;DHT22;5241;47.830;12.972;2024-03-02T13:29:57;20.50;83.40
10390;DHT22;5241;47.830;12.972;2024-03-02T13:32:24;20.40;82.30
10390;DHT22;5241;47.830;12.972;2024-03-02T13:34:51;20.00;83.10
10390;DHT22;5241;47.830;12.972;2024-03-02T13:37:17;20.50;82.50
10390;DHT22;5241;47.830;12.972;2024-03-02T13:39:42;19.80;83.40
10390;DHT22;5241;47.830;12.972;2024-03-02T13:42:09;19.80;84.20
10390;DHT22;5241;47.830;12.972;2024-03-02T13:44:35;19.80;84.10
10390;DHT22;5241;47.830;12.972;2024-03-02T13:47:02;20.20;83.60
10390;DHT22;5241;47.830;12.972;2024-03-02T13:49:27;19.70;85.00
10390;DHT22;5241;47.830;12.972;2024-03-02T13:51:59;19.20;86.60
10390;DHT22;5241;47.830;12.972;2024-03-02T13:54:26;19.00;87.60
10390;DHT22;5241;47.830;12.972;2024-03-02T13:56:52;19.10;87.60
10390;DHT22;5241;47.830;12.972;2024-03-02T13:59:17;19.10;87.50
10390;DHT22;5241;47.830;12.972;2024-03-02T14:01:44;19.20;86.90
10390;DHT22;5241;47.830;12.972;2024-03-02T14:04:09;19.10;88.90
10390;DHT22;5241;47.830;12.972;2024-03-02T14:06:35;19.60;88.00
10390;DHT22;5241;47.830;12.972;2024-03-02T14:09:01;19.10;88.10
10390;DHT22;5241;47.830;12.972;2024-03-02T14:11:26;18.50;90.00
10390;DHT22;5241;47.830;12.972;2024-03-02T14:13:52;17.80;91.10
10390;DHT22;5241;47.830;12.972;2024-03-02T14:16:20;17.80;91.30
10390;DHT22;5241;47.830;12.972;2024-03-02T14:18:46;17.50;91.10
10390;DHT22;5241;47.830;12.972;2024-03-02T14:21:11;17.10;92.50
10390;DHT22;5241;47.830;12.972;2024-03-02T14:23:37;16.60;92.90
10390;DHT22;5241;47.830;12.972;2024-03-02T14:26:03;16.40;92.90
10390;DHT22;5241;47.830;12.972;2024-03-02T14:28:28;16.20;93.00
10390;DHT22;5241;47.830;12.972;2024-03-02T14:30:54;16.00;93.80
10390;DHT22;5241;47.830;12.972;2024-03-02T14:33:20;15.60;94.60
10390;DHT22;5241;47.830;12.972;2024-03-02T14:35:46;15.30;95.50
10390;DHT22;5241;47.830;12.972;2024-03-02T14:38:12;15.00;95.20
10390;DHT22;5241;47.830;12.972;2024-03-02T14:40:38;14.80;96.30
10390;DHT22;5241;47.830;12.972;2024-03-02T14:43:04;14.70;96.50
10390;DHT22;5241;47.830;12.972;2024-03-02T14:45:29;14.60;96.80
10390;DHT22;5241;47.830;12.972;2024-03-02T14:47:56;14.60;96.70
10390;DHT22;5241;47.830;12.972;2024-03-02T14:50:22;14.30;97.40
10390;DHT22;5241;47.830;12.972;2024-03-02T14:52:47;14.10;98.00
10390;DHT22;5241;47.830;12.972;2024-03-02T14:55:13;14.10;98.20
10390;DHT22;5241;47.830;12.972;2024-03-02T14:57:38;13.90;98.50
10390;DHT22;5241;47.830;12.972;2024-03-02T15:00:04;14.00;98.60
10390;DHT22;5241;47.830;12.972;2024-03-02T15:02:33;14.00;98.80
10390;DHT22;5241;47.830;12.972;2024-03-02T15:04:59;13.90;98.70
10390;DHT22;5241;47.830;12.972;2024-03-02T15:07:24;13.90;99.30
10390;DHT22;5241;47.830;12.972;2024-03-02T15:09:50;13.80;99.60
10390;DHT22;5241;47.830;12.972;2024-03-02T15:12:15;13.70;99.70
10390;DHT22;5241;47.830;12.972;2024-03-02T15:14:43;13.60;99.90
10390;DHT22;5241;47.830;12.972;2024-03-02T15:17:13;13.60;99.90
10390;DHT22;5241;47.830;12.972;2024-03-02T15:19:45;13.60;99.60
10390;DHT22;5241;47.830;12.972;2024-03-02T15:22:11;13.60;99.80
10390;DHT22;5241;47.830;12.972;2024-03-02T15:24:37;13.60;99.80
10390;DHT22;5241;47.830;12.972;2024-03-02T15:27:04;13.50;99.90
10390;DHT22;5241;47.830;12.972;2024-03-02T15:29:34;13.40;99.90
10390;DHT22;5241;47.830;12.972;2024-03-02T15:32:01;13.40;99.90
10390;DHT22;5241;47.830;12.972;2024-03-02T15:34:28;13.30;99.90
10390;DHT22;5241;47.830;12.972;2024-03-02T15:36:54;13.30;99.90
10390;DHT22;5241;47.830;12.972;2024-03-02T15:39:20;13.20;99.90
10390;DHT22;5241;47.830;12.972;2024-03-02T15:41:45;13.20;99.90
10390;DHT22;5241;47.830;12.972;2024-03-02T15:44:11;13.10;99.90
10390;DHT22;5241;47.830;12.972;2024-03-02T15:46:37;13.10;99.90